Time;durP1;ratioP1;P1;durP2;ratioP2;P2;SDS_P1;SDS_P2;PMS_P1;PMS_P2;Temp;Humidity;BMP_temperature;BMP_pressure;BME280_temperature;BME280_humidity;BME280_pressure;Samples;Min_cycle;Max_cycle;Signal;HPM_P1;HPM_P2
2022/02/06 00:00:38;;;;;;;3.05;1.20;;;;;;;;;;5033679;28;20029;-71
2022/02/06 00:03:05;;;;;;;3.15;1.20;;;;;;;;;;5033605;28;20392;-65
2022/02/06 00:05:31;;;;;;;2.40;1.00;;;;;;;;;;5032383;28;20025;-71
2022/02/06 00:07:58;;;;;;;2.30;0.90;;;;;;;;;;5033626;28;20029;-71
2022/02/06 00:10:24;;;;;;;6.72;1.50;;;;;;;;;;5034132;28;20021;-71
2022/02/06 00:12:50;;;;;;;3.42;1.20;;;;;;;;;;5033270;28;20036;-70
2022/02/06 00:15:18;;;;;;;3.42;1.40;;;;;;;;;;5033475;28;20029;-68
2022/02/06 00:17:46;;;;;;;2.55;0.93;;;;;;;;;;5032157;28;20114;-65
2022/02/06 00:20:14;;;;;;;3.28;0.82;;;;;;;;;;5033401;28;20047;-71
2022/02/06 00:22:56;;;;;;;3.83;1.25;;;;;;;;;;5033377;28;20024;-68
2022/02/06 00:25:44;;;;;;;2.97;1.20;;;;;;;;;;5033336;28;20028;-68
2022/02/06 00:30:47;;;;;;;3.95;1.00;;;;;;;;;;5033247;28;20036;-68
2022/02/06 00:33:24;;;;;;;3.63;1.13;;;;;;;;;;5032002;28;20029;-71
2022/02/06 00:35:59;;;;;;;5.32;1.20;;;;;;;;;;5033287;28;20025;-70
2022/02/06 00:39:03;;;;;;;4.20;1.08;;;;;;;;;;5049463;28;20025;-65
2022/02/06 00:41:15;;;;;;;3.45;1.35;;;;;;;;;;5050353;28;20036;-70
2022/02/06 00:43:42;;;;;;;2.88;1.00;;;;;;;;;;5052107;28;20104;-70
2022/02/06 00:46:10;;;;;;;2.90;1.08;;;;;;;;;;5052059;28;20021;-66
2022/02/06 00:48:40;;;;;;;2.75;1.10;;;;;;;;;;5052367;28;20177;-72
2022/02/06 00:51:15;;;;;;;4.15;1.02;;;;;;;;;;5065504;28;20042;-72
2022/02/06 00:53:41;;;;;;;2.83;1.20;;;;;;;;;;5071331;28;20025;-70
2022/02/06 00:56:08;;;;;;;2.40;0.90;;;;;;;;;;5072656;28;20025;-68
2022/02/06 00:58:34;;;;;;;2.90;1.20;;;;;;;;;;5072079;28;20020;-71
2022/02/06 01:01:01;;;;;;;3.53;1.13;;;;;;;;;;5066072;28;20043;-72
2022/02/06 01:03:27;;;;;;;3.35;1.10;;;;;;;;;;5032791;28;20016;-73
2022/02/06 01:05:53;;;;;;;3.78;1.17;;;;;;;;;;5032743;28;20029;-72
2022/02/06 01:08:19;;;;;;;3.65;1.27;;;;;;;;;;5032343;28;20112;-72
2022/02/06 01:10:45;;;;;;;4.75;1.38;;;;;;;;;;5040782;28;20041;-71
2022/02/06 01:13:21;;;;;;;4.60;1.30;;;;;;;;;;5052290;28;20519;-68
2022/02/06 01:16:12;;;;;;;3.17;1.40;;;;;;;;;;5052349;28;20017;-70
2022/02/06 01:18:38;;;;;;;3.67;1.50;;;;;;;;;;5044550;28;20037;-68
2022/02/06 01:21:20;;;;;;;4.40;1.48;;;;;;;;;;5032394;28;20033;-71
2022/02/06 01:26:29;;;;;;;2.57;1.17;;;;;;;;;;5032156;28;20290;-69
2022/02/06 01:29:06;;;;;;;3.28;1.10;;;;;;;;;;5031947;28;20276;-72
2022/02/06 01:34:01;;;;;;;3.53;1.30;;;;;;;;;;5051830;28;20060;-69
2022/02/06 01:39:16;;;;;;;4.30;1.35;;;;;;;;;;5051231;28;20116;-71
2022/02/06 01:41:45;;;;;;;2.38;1.05;;;;;;;;;;5050320;28;20053;-71
2022/02/06 01:44:36;;;;;;;3.70;1.35;;;;;;;;;;5051560;28;20024;-65
2022/02/06 02:48:03;;;;;;;;;;;;;;;;;;5030206;28;20137;-67
2022/02/06 02:50:32;;;;;;;4.45;1.40;;;;;;;;;;5030952;28;20751;-60
2022/02/06 02:56:02;;;;;;;5.18;1.42;;;;;;;;;;5031043;28;20048;-66
2022/02/06 02:59:17;;;;;;;4.75;1.40;;;;;;;;;;5030896;28;20021;-71
2022/02/06 03:03:46;;;;;;;5.03;1.30;;;;;;;;;;5031264;28;20024;-70
2022/02/06 03:06:12;;;;;;;4.13;1.40;;;;;;;;;;5031169;28;20049;-66
2022/02/06 03:08:40;;;;;;;3.70;1.60;;;;;;;;;;5031198;28;20021;-65
2022/02/06 03:11:09;;;;;;;6.10;1.08;;;;;;;;;;5031075;28;20056;-69
2022/02/06 03:16:14;;;;;;;3.40;1.30;;;;;;;;;;5030864;28;20136;-69
2022/02/06 03:21:20;;;;;;;2.00;1.00;;;;;;;;;;5032317;28;20047;-70
2022/02/06 03:23:52;;;;;;;5.78;1.40;;;;;;;;;;5034501;28;20035;-70
2022/02/06 03:26:19;;;;;;;3.83;1.33;;;;;;;;;;5034672;28;20118;-70
2022/02/06 03:28:46;;;;;;;3.20;1.23;;;;;;;;;;5034473;28;20377;-65
2022/02/06 03:31:12;;;;;;;3.22;1.40;;;;;;;;;;5034440;28;20052;-70
2022/02/06 03:33:38;;;;;;;2.85;1.00;;;;;;;;;;5034579;28;20021;-70
2022/02/06 03:36:04;;;;;;;3.58;1.30;;;;;;;;;;5034627;28;20071;-74
2022/02/06 03:38:30;;;;;;;3.25;1.20;;;;;;;;;;5033120;28;20420;-75
2022/02/06 03:41:09;;;;;;;4.00;1.65;;;;;;;;;;5040941;28;20021;-67
2022/02/06 03:44:05;;;;;;;3.83;1.30;;;;;;;;;;5054289;28;20036;-72
2022/02/06 03:46:32;;;;;;;3.85;1.40;;;;;;;;;;5053885;28;20021;-70
2022/02/06 03:49:13;;;;;;;3.08;1.10;;;;;;;;;;5054148;28;20028;-74
2022/02/06 03:51:39;;;;;;;3.75;1.35;;;;;;;;;;5054137;28;20028;-73
2022/02/06 03:54:08;;;;;;;2.35;1.10;;;;;;;;;;5054028;28;20040;-71
2022/02/06 03:56:34;;;;;;;4.03;1.17;;;;;;;;;;5053718;28;20513;-71
2022/02/06 03:59:01;;;;;;;3.20;1.10;;;;;;;;;;5053515;28;20484;-72
2022/02/06 04:01:28;;;;;;;4.15;1.30;;;;;;;;;;5053914;28;20021;-67
2022/02/06 04:03:54;;;;;;;2.90;1.10;;;;;;;;;;5053731;28;20031;-72
2022/02/06 04:06:20;;;;;;;6.20;1.25;;;;;;;;;;5052465;28;20071;-69
2022/02/06 04:08:47;;;;;;;3.47;1.10;;;;;;;;;;5053655;28;20021;-69
2022/02/06 04:11:20;;;;;;;3.65;1.00;;;;;;;;;;5054107;28;20029;-70
2022/02/06 04:14:07;;;;;;;2.63;0.80;;;;;;;;;;5052855;28;20443;-68
2022/02/06 04:16:49;;;;;;;3.10;1.02;;;;;;;;;;5053557;28;20419;-68
2022/02/06 04:19:21;;;;;;;5.28;1.10;;;;;;;;;;5053503;28;20033;-73
2022/02/06 04:21:48;;;;;;;3.25;1.23;;;;;;;;;;5053493;28;20416;-68
2022/02/06 04:24:14;;;;;;;2.17;0.90;;;;;;;;;;5052240;28;20043;-70
2022/02/06 04:26:40;;;;;;;5.22;1.00;;;;;;;;;;5053255;28;20055;-70
2022/02/06 04:29:07;;;;;;;2.50;1.00;;;;;;;;;;5051881;28;20028;-66
2022/02/06 04:31:33;;;;;;;3.78;0.98;;;;;;;;;;5053114;28;20116;-69
2022/02/06 04:33:59;;;;;;;2.05;0.90;;;;;;;;;;5052558;28;20017;-69
2022/02/06 04:36:32;;;;;;;3.72;1.15;;;;;;;;;;5053195;28;20099;-68
2022/02/06 04:55:31;;;;;;;3.22;1.10;;;;;;;;;;5033099;28;20056;-68
2022/02/06 05:19:48;;;;;;;6.60;1.30;;;;;;;;;;5032595;28;20049;-70
2022/02/06 05:32:32;;;;;;;3.58;1.15;;;;;;;;;;5032216;28;20025;-70
2022/02/06 05:34:58;;;;;;;3.28;0.85;;;;;;;;;;5031991;28;20461;-71
2022/02/06 05:37:26;;;;;;;2.10;1.00;;;;;;;;;;5032170;28;20053;-71
2022/02/06 05:39:55;;;;;;;3.05;1.00;;;;;;;;;;5032297;28;20037;-70
2022/02/06 05:42:22;;;;;;;3.22;0.93;;;;;;;;;;5051194;28;20029;-69
2022/02/06 05:44:54;;;;;;;1.90;0.90;;;;;;;;;;5051707;28;20587;-68
2022/02/06 05:47:20;;;;;;;2.25;0.90;;;;;;;;;;5052767;28;20063;-67
2022/02/06 05:49:46;;;;;;;2.97;0.95;;;;;;;;;;5052565;28;20070;-69
2022/02/06 05:52:13;;;;;;;4.95;1.13;;;;;;;;;;5052410;28;20029;-69
2022/02/06 05:54:39;;;;;;;3.17;1.00;;;;;;;;;;5051896;28;20025;-70
2022/02/06 05:57:05;;;;;;;3.85;0.90;;;;;;;;;;5051748;28;20021;-69
2022/02/06 05:59:31;;;;;;;2.65;1.08;;;;;;;;;;5051620;28;20112;-68
2022/02/06 06:01:58;;;;;;;1.98;0.90;;;;;;;;;;5051613;28;20107;-70
2022/02/06 06:04:24;;;;;;;2.80;1.00;;;;;;;;;;5051786;28;20091;-71
2022/02/06 06:06:50;;;;;;;2.20;0.90;;;;;;;;;;5051529;28;20025;-72
2022/02/06 06:09:16;;;;;;;2.67;0.93;;;;;;;;;;5051607;28;20071;-69
2022/02/06 06:11:42;;;;;;;2.22;1.02;;;;;;;;;;5051597;28;20016;-72
2022/02/06 06:14:08;;;;;;;2.50;1.02;;;;;;;;;;5051594;28;20029;-66
2022/02/06 06:16:35;;;;;;;3.13;0.80;;;;;;;;;;5051590;28;20590;-71
2022/02/06 06:19:01;;;;;;;3.83;1.25;;;;;;;;;;5051298;28;20037;-71
2022/02/06 06:21:31;;;;;;;2.53;0.85;;;;;;;;;;5051313;28;20045;-71
2022/02/06 06:23:59;;;;;;;3.15;1.10;;;;;;;;;;5051557;28;20025;-71
2022/02/06 06:26:27;;;;;;;2.42;0.73;;;;;;;;;;5051141;28;20107;-70
2022/02/06 06:28:53;;;;;;;3.03;1.10;;;;;;;;;;5051006;28;20013;-68
2022/02/06 06:31:19;;;;;;;1.95;0.80;;;;;;;;;;5051643;28;20028;-71
2022/02/06 06:33:45;;;;;;;2.28;0.77;;;;;;;;;;5051443;28;20074;-71
2022/02/06 06:36:11;;;;;;;2.63;1.00;;;;;;;;;;5051209;28;20032;-71
2022/02/06 06:38:38;;;;;;;3.28;0.90;;;;;;;;;;5051197;28;20021;-70
2022/02/06 06:41:04;;;;;;;2.78;0.90;;;;;;;;;;5043156;28;20033;-69
2022/02/06 06:43:30;;;;;;;1.83;0.82;;;;;;;;;;5031259;28;20017;-71
2022/02/06 06:45:57;;;;;;;3.78;1.10;;;;;;;;;;5031368;28;20384;-70
2022/02/06 06:48:23;;;;;;;3.35;0.93;;;;;;;;;;5031222;28;20045;-73
2022/02/06 06:50:49;;;;;;;2.20;1.05;;;;;;;;;;5031094;28;20119;-73
2022/02/06 06:53:16;;;;;;;1.67;0.80;;;;;;;;;;5031218;28;20030;-68
2022/02/06 06:55:44;;;;;;;2.42;0.82;;;;;;;;;;5031654;28;20101;-69
2022/02/06 06:58:19;;;;;;;2.45;1.00;;;;;;;;;;5048411;28;20123;-72
2022/02/06 07:03:22;;;;;;;2.88;0.70;;;;;;;;;;5055160;28;20208;-74
2022/02/06 07:05:48;;;;;;;2.03;0.80;;;;;;;;;;5053837;28;20461;-76
2022/02/06 07:08:16;;;;;;;1.95;0.80;;;;;;;;;;5055016;28;20060;-70
2022/02/06 07:10:42;;;;;;;2.13;0.77;;;;;;;;;;5054849;28;20021;-69
2022/02/06 07:13:08;;;;;;;3.20;1.05;;;;;;;;;;5054864;28;20033;-70
2022/02/06 07:15:34;;;;;;;4.07;1.00;;;;;;;;;;5054813;28;20055;-68
2022/02/06 07:18:00;;;;;;;2.95;0.75;;;;;;;;;;5054885;28;20025;-71
2022/02/06 07:20:29;;;;;;;1.80;0.75;;;;;;;;;;5054910;28;20044;-70
2022/02/06 07:22:56;;;;;;;2.63;1.10;;;;;;;;;;5054664;28;20017;-69
2022/02/06 07:25:22;;;;;;;1.88;0.85;;;;;;;;;;5054825;28;20498;-70
2022/02/06 07:27:49;;;;;;;3.65;0.90;;;;;;;;;;5054717;28;20056;-71
2022/02/06 07:30:16;;;;;;;2.50;0.77;;;;;;;;;;5054352;28;20104;-70
2022/02/06 07:32:43;;;;;;;4.03;0.88;;;;;;;;;;5054496;28;20686;-71
2022/02/06 07:35:10;;;;;;;1.67;0.70;;;;;;;;;;5054564;28;20021;-70
2022/02/06 07:37:48;;;;;;;3.20;0.93;;;;;;;;;;5054499;28;20025;-70
2022/02/06 07:40:14;;;;;;;3.00;0.93;;;;;;;;;;5053310;28;20033;-70
2022/02/06 07:42:41;;;;;;;2.28;0.80;;;;;;;;;;5035334;28;20021;-72
2022/02/06 07:45:09;;;;;;;3.15;0.90;;;;;;;;;;5034041;28;20014;-73
2022/02/06 07:47:37;;;;;;;1.42;0.65;;;;;;;;;;5034172;28;20029;-72
2022/02/06 07:50:06;;;;;;;2.30;0.85;;;;;;;;;;5034155;28;20013;-71
2022/02/06 07:52:32;;;;;;;2.53;1.08;;;;;;;;;;5034594;28;20078;-69
2022/02/06 07:54:58;;;;;;;2.20;0.80;;;;;;;;;;5033566;28;20032;-70
2022/02/06 07:57:24;;;;;;;4.38;1.00;;;;;;;;;;5034602;28;20018;-70
2022/02/06 07:59:51;;;;;;;2.50;0.88;;;;;;;;;;5034701;28;20034;-71
2022/02/06 08:02:18;;;;;;;2.53;0.88;;;;;;;;;;5034958;28;20516;-69
2022/02/06 08:04:45;;;;;;;1.95;0.80;;;;;;;;;;5034728;28;20416;-67
2022/02/06 08:07:11;;;;;;;2.28;0.85;;;;;;;;;;5034105;28;20021;-69
2022/02/06 08:09:49;;;;;;;4.75;0.80;;;;;;;;;;5032695;28;20025;-67
2022/02/06 08:12:15;;;;;;;3.33;0.85;;;;;;;;;;5034367;28;20096;-70
2022/02/06 08:14:54;;;;;;;3.08;1.00;;;;;;;;;;5034321;28;20488;-70
2022/02/06 08:17:21;;;;;;;3.30;0.88;;;;;;;;;;5034287;28;20025;-70
2022/02/06 08:19:48;;;;;;;4.00;1.10;;;;;;;;;;5034191;28;20043;-71
2022/02/06 08:22:15;;;;;;;1.98;0.80;;;;;;;;;;5034304;28;20060;-71
2022/02/06 08:24:41;;;;;;;2.53;0.90;;;;;;;;;;5034373;28;20044;-69
2022/02/06 08:27:07;;;;;;;2.55;0.98;;;;;;;;;;5033779;28;20091;-71
2022/02/06 08:29:36;;;;;;;3.40;1.00;;;;;;;;;;5034082;28;20133;-71
2022/02/06 08:32:03;;;;;;;3.28;1.05;;;;;;;;;;5032629;28;20112;-70
2022/02/06 08:34:29;;;;;;;1.95;0.88;;;;;;;;;;5034150;28;20187;-69
2022/02/06 08:36:55;;;;;;;2.33;1.08;;;;;;;;;;5033937;28;20029;-69
2022/02/06 08:39:21;;;;;;;2.88;0.90;;;;;;;;;;5033860;28;20116;-69
2022/02/06 08:41:47;;;;;;;2.15;1.00;;;;;;;;;;5046364;28;20017;-69
2022/02/06 08:44:13;;;;;;;2.33;1.00;;;;;;;;;;5053456;28;20112;-71
2022/02/06 08:46:39;;;;;;;2.80;1.00;;;;;;;;;;5053371;28;20472;-68
2022/02/06 08:49:05;;;;;;;3.40;1.00;;;;;;;;;;5052260;28;20021;-69
2022/02/06 08:51:31;;;;;;;3.67;0.98;;;;;;;;;;5052130;28;20025;-71
2022/02/06 08:53:57;;;;;;;3.58;1.10;;;;;;;;;;5053222;28;20049;-70
2022/02/06 08:56:27;;;;;;;1.90;0.90;;;;;;;;;;5052262;28;20063;-69
2022/02/06 08:58:54;;;;;;;2.85;0.90;;;;;;;;;;5050919;28;20377;-70
2022/02/06 09:01:20;;;;;;;2.28;0.90;;;;;;;;;;5052260;28;20103;-69
2022/02/06 09:03:48;;;;;;;2.75;0.90;;;;;;;;;;5053407;28;20017;-70
2022/02/06 09:06:15;;;;;;;3.58;1.20;;;;;;;;;;5053099;28;20025;-71
2022/02/06 09:08:41;;;;;;;1.80;0.82;;;;;;;;;;5053098;28;20471;-71
2022/02/06 09:11:07;;;;;;;1.48;0.88;;;;;;;;;;5051833;28;20418;-71
2022/02/06 09:13:33;;;;;;;2.38;0.90;;;;;;;;;;5053236;28;20472;-71
2022/02/06 09:15:59;;;;;;;2.83;1.02;;;;;;;;;;5051871;28;20025;-70
2022/02/06 09:18:25;;;;;;;2.42;0.95;;;;;;;;;;5052948;28;20032;-71
2022/02/06 09:20:51;;;;;;;2.83;1.02;;;;;;;;;;5052880;28;20029;-67
2022/02/06 09:23:17;;;;;;;4.10;1.00;;;;;;;;;;5052734;28;20033;-71
2022/02/06 09:25:43;;;;;;;4.18;1.10;;;;;;;;;;5052670;28;20105;-71
2022/02/06 09:28:10;;;;;;;7.95;1.20;;;;;;;;;;5052723;28;20041;-70
2022/02/06 09:30:36;;;;;;;2.38;0.95;;;;;;;;;;5052805;28;20047;-71
2022/02/06 09:35:28;;;;;;;2.08;0.80;;;;;;;;;;5052816;28;20108;-70
2022/02/06 09:37:56;;;;;;;4.10;1.08;;;;;;;;;;5052804;28;20376;-71
2022/02/06 09:40:23;;;;;;;2.25;0.93;;;;;;;;;;5049998;28;20025;-69
2022/02/06 09:42:52;;;;;;;3.17;0.95;;;;;;;;;;5032493;28;20108;-71
2022/02/06 09:45:23;;;;;;;4.78;1.05;;;;;;;;;;5032649;28;20444;-71
2022/02/06 09:47:49;;;;;;;2.75;1.10;;;;;;;;;;5032704;28;20021;-67
2022/02/06 09:50:15;;;;;;;2.55;0.93;;;;;;;;;;5032712;28;20385;-70
2022/02/06 09:52:42;;;;;;;2.55;1.10;;;;;;;;;;5032459;28;20048;-70
2022/02/06 09:55:15;;;;;;;4.07;1.20;;;;;;;;;;5030984;28;20044;-71
2022/02/06 09:58:14;;;;;;;2.67;1.25;;;;;;;;;;5032225;28;20117;-71
2022/02/06 10:00:42;;;;;;;3.85;1.25;;;;;;;;;;5032353;28;20204;-69
2022/02/06 10:03:11;;;;;;;2.83;1.15;;;;;;;;;;5034730;28;20029;-64
2022/02/06 10:05:38;;;;;;;3.78;1.20;;;;;;;;;;5039293;28;20036;-71
2022/02/06 10:08:31;;;;;;;4.45;1.02;;;;;;;;;;5050491;28;20116;-70
2022/02/06 10:11:06;;;;;;;2.75;1.20;;;;;;;;;;5047245;28;20091;-67
2022/02/06 10:13:37;;;;;;;3.20;1.25;;;;;;;;;;5030640;28;20057;-69
2022/02/06 10:16:03;;;;;;;3.67;1.13;;;;;;;;;;5037475;28;20029;-70
2022/02/06 10:18:31;;;;;;;3.00;1.20;;;;;;;;;;5070289;28;20079;-71
2022/02/06 10:20:57;;;;;;;2.53;1.10;;;;;;;;;;5071510;28;20083;-70
2022/02/06 10:23:39;;;;;;;4.38;1.60;;;;;;;;;;5043172;28;20049;-71
2022/02/06 10:26:19;;;;;;;4.83;1.70;;;;;;;;;;5030398;28;20030;-72
2022/02/06 10:28:57;;;;;;;3.17;1.58;;;;;;;;;;5031349;28;20057;-70
2022/02/06 10:31:24;;;;;;;3.38;1.45;;;;;;;;;;5031389;28;20025;-70
2022/02/06 10:33:52;;;;;;;3.92;1.25;;;;;;;;;;5031831;28;20040;-70
2022/02/06 10:36:22;;;;;;;6.53;1.90;;;;;;;;;;5031797;28;20021;-71
2022/02/06 10:38:48;;;;;;;4.30;1.50;;;;;;;;;;5032198;28;20049;-71
2022/02/06 10:41:17;;;;;;;3.42;1.48;;;;;;;;;;5050403;28;20082;-70
2022/02/06 10:43:57;;;;;;;4.18;1.60;;;;;;;;;;5071673;28;20016;-70
2022/02/06 10:46:24;;;;;;;4.30;1.65;;;;;;;;;;5071263;28;20029;-71
2022/02/06 10:48:52;;;;;;;3.97;1.38;;;;;;;;;;5071292;28;20540;-70
2022/02/06 10:51:37;;;;;;;4.20;1.88;;;;;;;;;;5071485;28;20029;-68
2022/02/06 10:54:04;;;;;;;3.58;1.50;;;;;;;;;;5071393;28;20108;-71
2022/02/06 10:56:30;;;;;;;4.18;1.75;;;;;;;;;;5057603;28;20120;-71
2022/02/06 10:59:04;;;;;;;3.97;1.63;;;;;;;;;;5031357;28;20033;-70
2022/02/06 11:01:31;;;;;;;5.95;1.83;;;;;;;;;;5047686;28;20029;-70
2022/02/06 11:04:16;;;;;;;3.72;1.77;;;;;;;;;;5051286;28;20025;-68
2022/02/06 11:06:48;;;;;;;4.85;1.67;;;;;;;;;;5050976;28;20064;-70
2022/02/06 11:09:21;;;;;;;4.03;1.73;;;;;;;;;;5051154;28;20029;-67
2022/02/06 11:11:47;;;;;;;;;;;;;;;;;;5051762;28;20025;-70
2022/02/06 11:14:14;;;;;;;3.58;1.70;;;;;;;;;;5050359;28;20367;-71
2022/02/06 11:16:49;;;;;;;3.38;1.23;;;;;;;;;;5051293;28;20024;-69
2022/02/06 11:19:17;;;;;;;5.28;1.95;;;;;;;;;;5051000;28;20025;-71
2022/02/06 11:21:43;;;;;;;3.85;1.60;;;;;;;;;;5051045;28;20025;-68
2022/02/06 11:24:17;;;;;;;3.70;1.40;;;;;;;;;;5051181;28;20037;-71
2022/02/06 11:26:43;;;;;;;4.00;1.70;;;;;;;;;;5050923;28;20037;-70
2022/02/06 11:29:10;;;;;;;3.85;1.70;;;;;;;;;;5050677;28;20029;-70
2022/02/06 11:31:36;;;;;;;4.53;1.70;;;;;;;;;;5049621;28;20017;-64
2022/02/06 11:34:02;;;;;;;5.20;1.85;;;;;;;;;;5050740;28;20021;-71
2022/02/06 11:45:19;;;;;;;2.60;1.20;;;;;;;;;;5034626;28;20043;-73
2022/02/06 11:47:53;;;;;;;3.95;1.50;;;;;;;;;;5033841;28;20537;-68
2022/02/06 11:50:19;;;;;;;3.95;1.60;;;;;;;;;;5034484;28;20026;-64
2022/02/06 11:52:48;;;;;;;3.30;1.40;;;;;;;;;;5034305;28;20032;-70
2022/02/06 11:55:33;;;;;;;4.03;1.80;;;;;;;;;;5034322;28;20064;-70
2022/02/06 11:58:17;;;;;;;4.53;1.60;;;;;;;;;;5034348;28;20056;-70
2022/02/06 12:00:43;;;;;;;2.60;1.23;;;;;;;;;;5034156;28;20073;-68
2022/02/06 12:03:13;;;;;;;3.30;1.25;;;;;;;;;;5032889;28;20484;-68
2022/02/06 12:05:57;;;;;;;5.15;1.60;;;;;;;;;;5034758;28;20029;-69
2022/02/06 12:08:23;;;;;;;4.32;1.58;;;;;;;;;;5033888;28;20117;-70
2022/02/06 12:10:59;;;;;;;3.97;1.60;;;;;;;;;;5034268;28;20546;-69
2022/02/06 12:16:03;;;;;;;4.38;1.60;;;;;;;;;;5053847;28;20506;-71
2022/02/06 12:18:33;;;;;;;3.30;1.58;;;;;;;;;;5053650;28;20040;-70
2022/02/06 12:21:20;;;;;;;3.30;1.48;;;;;;;;;;5049956;28;20602;-70
2022/02/06 12:23:54;;;;;;;3.95;1.73;;;;;;;;;;5046585;28;20386;-72
2022/02/06 12:26:27;;;;;;;4.13;1.35;;;;;;;;;;5053436;28;20492;-71
2022/02/06 12:28:58;;;;;;;5.97;1.33;;;;;;;;;;5052833;28;20036;-71
2022/02/06 12:31:30;;;;;;;4.55;1.20;;;;;;;;;;5053029;28;20067;-71
2022/02/06 12:39:24;;;;;;;2.90;1.48;;;;;;;;;;5053666;28;20048;-75
2022/02/06 12:41:50;;;;;;;11.45;3.17;;;;;;;;;;5038315;28;20496;-74
2022/02/06 12:44:17;;;;;;;11.18;2.35;;;;;;;;;;5033390;28;20108;-72
2022/02/06 12:46:44;;;;;;;8.90;2.53;;;;;;;;;;5034095;28;20485;-67
2022/02/06 12:49:11;;;;;;;7.28;2.05;;;;;;;;;;5053487;28;20025;-71
2022/02/06 12:51:37;;;;;;;8.32;2.10;;;;;;;;;;5050784;28;20057;-73
2022/02/06 12:54:10;;;;;;;7.95;1.88;;;;;;;;;;5048946;28;20017;-71
2022/02/06 12:56:36;;;;;;;5.35;1.70;;;;;;;;;;5053443;28;20033;-73
2022/02/06 12:59:03;;;;;;;8.60;1.52;;;;;;;;;;5053204;28;20135;-70
2022/02/06 13:01:41;;;;;;;4.50;1.88;;;;;;;;;;5053332;28;20029;-73
2022/02/06 13:04:10;;;;;;;15.57;1.90;;;;;;;;;;5053499;28;20020;-71
2022/02/06 13:06:37;;;;;;;6.50;2.15;;;;;;;;;;5052179;28;20682;-75
2022/02/06 13:09:12;;;;;;;5.32;2.20;;;;;;;;;;5052784;28;20514;-70
2022/02/06 13:11:47;;;;;;;6.35;2.25;;;;;;;;;;5053268;28;20017;-74
2022/02/06 13:17:00;;;;;;;4.72;1.63;;;;;;;;;;5051005;28;20029;-74
2022/02/06 13:22:11;;;;;;;5.68;1.90;;;;;;;;;;5033068;28;20100;-75
2022/02/06 13:37:59;;;;;;;4.78;1.50;;;;;;;;;;5032952;28;20452;-73
2022/02/06 13:40:31;;;;;;;5.20;1.90;;;;;;;;;;5032880;28;20029;-75
2022/02/06 13:43:05;;;;;;;4.22;1.80;;;;;;;;;;5064499;28;20067;-75
2022/02/06 13:45:33;;;;;;;8.45;1.77;;;;;;;;;;5064613;28;20434;-75
2022/02/06 13:48:00;;;;;;;4.53;1.70;;;;;;;;;;5032329;28;20025;-75
2022/02/06 13:50:27;;;;;;;4.32;1.67;;;;;;;;;;5032482;28;20022;-76
2022/02/06 13:53:06;;;;;;;5.30;2.00;;;;;;;;;;5064472;28;20028;-75
2022/02/06 13:55:32;;;;;;;4.00;1.70;;;;;;;;;;5038356;28;20026;-74
2022/02/06 13:57:59;;;;;;;6.10;2.00;;;;;;;;;;5072305;28;20574;-74
2022/02/06 14:00:25;;;;;;;4.40;1.55;;;;;;;;;;5063502;28;20058;-68
2022/02/06 14:02:51;;;;;;;4.30;1.77;;;;;;;;;;5069846;28;20081;-74
2022/02/06 14:05:19;;;;;;;4.05;1.70;;;;;;;;;;5070469;28;20065;-75
2022/02/06 14:08:00;;;;;;;5.82;1.88;;;;;;;;;;5072110;28;20012;-75
2022/02/06 14:10:31;;;;;;;4.20;1.90;;;;;;;;;;5072348;28;20135;-76
2022/02/06 14:12:57;;;;;;;4.35;1.85;;;;;;;;;;5072127;28;20166;-75
2022/02/06 14:15:25;;;;;;;3.58;1.70;;;;;;;;;;5072499;28;20486;-75
2022/02/06 14:17:54;;;;;;;5.85;2.00;;;;;;;;;;5072008;28;20035;-74
2022/02/06 14:20:24;;;;;;;4.32;1.80;;;;;;;;;;5072061;28;20025;-73
2022/02/06 14:22:53;;;;;;;3.75;1.67;;;;;;;;;;5072106;28;20028;-76
2022/02/06 14:25:25;;;;;;;4.43;1.50;;;;;;;;;;5072219;28;20123;-75
2022/02/06 14:27:51;;;;;;;3.78;1.40;;;;;;;;;;5071682;28;20041;-75
2022/02/06 14:30:17;;;;;;;3.85;1.75;;;;;;;;;;5071890;28;20131;-75
2022/02/06 14:33:01;;;;;;;3.45;1.55;;;;;;;;;;5072550;28;20035;-75
2022/02/06 14:35:37;;;;;;;3.75;1.75;;;;;;;;;;5072899;28;20025;-74
2022/02/06 14:38:04;;;;;;;5.78;1.90;;;;;;;;;;5072753;28;20024;-76
2022/02/06 14:43:16;;;;;;;3.80;1.85;;;;;;;;;;5051794;28;20048;-70
2022/02/06 14:45:45;;;;;;;3.78;1.63;;;;;;;;;;5051807;28;20021;-74
2022/02/06 14:48:11;;;;;;;3.03;1.50;;;;;;;;;;5051819;28;20036;-75
2022/02/06 14:50:37;;;;;;;4.10;1.80;;;;;;;;;;5051911;28;20075;-75
2022/02/06 14:53:03;;;;;;;4.03;1.90;;;;;;;;;;5051711;28;20036;-74
2022/02/06 14:55:31;;;;;;;3.47;1.80;;;;;;;;;;5051707;28;20100;-71
2022/02/06 14:57:57;;;;;;;3.83;1.77;;;;;;;;;;5051204;28;20029;-75
2022/02/06 15:00:23;;;;;;;3.65;1.70;;;;;;;;;;5051350;28;20036;-75
2022/02/06 15:02:49;;;;;;;5.53;1.90;;;;;;;;;;5051510;28;20492;-74
2022/02/06 15:05:15;;;;;;;4.15;1.80;;;;;;;;;;5051656;28;20499;-75
2022/02/06 15:07:42;;;;;;;3.97;1.63;;;;;;;;;;5050258;28;20025;-74
2022/02/06 15:10:08;;;;;;;5.05;2.80;;;;;;;;;;5051770;28;20087;-74
2022/02/06 15:12:35;;;;;;;4.82;1.80;;;;;;;;;;5051433;28;20496;-72
2022/02/06 15:15:01;;;;;;;4.28;2.03;;;;;;;;;;5051548;28;20386;-73
2022/02/06 15:17:29;;;;;;;4.88;2.00;;;;;;;;;;5053142;28;20021;-75
2022/02/06 15:19:55;;;;;;;4.22;1.85;;;;;;;;;;5055240;28;20096;-75
2022/02/06 15:22:21;;;;;;;3.97;2.00;;;;;;;;;;5055506;28;20536;-76
2022/02/06 15:24:47;;;;;;;4.00;1.77;;;;;;;;;;5072530;28;20020;-73
2022/02/06 15:27:14;;;;;;;4.22;2.00;;;;;;;;;;5075053;28;20041;-76
2022/02/06 15:29:40;;;;;;;8.85;2.20;;;;;;;;;;5075105;28;20028;-75
2022/02/06 15:32:06;;;;;;;4.03;2.10;;;;;;;;;;5075042;28;20048;-75
2022/02/06 15:34:34;;;;;;;3.67;1.58;;;;;;;;;;5075108;28;20028;-73
2022/02/06 15:37:02;;;;;;;4.15;1.98;;;;;;;;;;5075207;28;20024;-75
2022/02/06 15:39:36;;;;;;;3.55;1.70;;;;;;;;;;5075012;28;20032;-73
2022/02/06 15:42:12;;;;;;;3.67;1.95;;;;;;;;;;5058832;28;20025;-70
2022/02/06 15:44:38;;;;;;;4.47;2.10;;;;;;;;;;5054779;28;20048;-75
2022/02/06 15:47:04;;;;;;;4.38;1.88;;;;;;;;;;5054725;28;20101;-76
2022/02/06 15:49:30;;;;;;;4.15;2.20;;;;;;;;;;5054863;28;20053;-72
2022/02/06 15:51:56;;;;;;;3.70;1.77;;;;;;;;;;5054750;28;20017;-75
2022/02/06 15:54:22;;;;;;;4.38;1.52;;;;;;;;;;5054686;28;20055;-75
2022/02/06 15:56:48;;;;;;;4.25;1.95;;;;;;;;;;5054708;28;20064;-74
2022/02/06 15:59:15;;;;;;;6.25;2.03;;;;;;;;;;5054440;28;20679;-74
2022/02/06 16:01:41;;;;;;;4.15;2.03;;;;;;;;;;5054422;28;20052;-75
2022/02/06 16:04:07;;;;;;;3.08;1.52;;;;;;;;;;5054447;28;20024;-75
2022/02/06 16:06:36;;;;;;;4.00;2.00;;;;;;;;;;5054567;28;20488;-66
2022/02/06 16:09:03;;;;;;;3.95;1.80;;;;;;;;;;5054222;28;20042;-74
2022/02/06 16:11:30;;;;;;;4.10;1.80;;;;;;;;;;5054498;28;20021;-71
2022/02/06 16:13:56;;;;;;;3.50;1.63;;;;;;;;;;5054257;28;20036;-74
2022/02/06 16:16:26;;;;;;;4.65;2.22;;;;;;;;;;5054461;28;20112;-72
2022/02/06 16:18:53;;;;;;;3.75;2.10;;;;;;;;;;5054078;28;20024;-74
2022/02/06 16:21:19;;;;;;;5.22;2.15;;;;;;;;;;5054151;28;20025;-72
2022/02/06 16:23:45;;;;;;;5.53;2.55;;;;;;;;;;5053957;28;20089;-76
2022/02/06 16:26:11;;;;;;;3.92;1.98;;;;;;;;;;5054016;28;20025;-72
2022/02/06 16:28:38;;;;;;;4.97;2.20;;;;;;;;;;5053268;28;20092;-72
2022/02/06 16:31:04;;;;;;;3.90;1.83;;;;;;;;;;5053884;28;20519;-75
2022/02/06 16:33:31;;;;;;;4.65;2.08;;;;;;;;;;5053785;28;20029;-73
2022/02/06 16:35:57;;;;;;;4.07;2.15;;;;;;;;;;5053909;28;20491;-76
2022/02/06 16:38:23;;;;;;;5.15;2.28;;;;;;;;;;5053862;28;20067;-72
2022/02/06 16:40:50;;;;;;;4.43;2.03;;;;;;;;;;5046333;28;20060;-75
2022/02/06 16:43:17;;;;;;;4.78;2.47;;;;;;;;;;5033857;28;20022;-76
2022/02/06 16:45:43;;;;;;;4.00;2.08;;;;;;;;;;5032488;28;20504;-75
2022/02/06 16:48:09;;;;;;;4.45;2.08;;;;;;;;;;5033714;28;20463;-75
2022/02/06 16:50:35;;;;;;;4.05;1.98;;;;;;;;;;5033525;28;20471;-74
2022/02/06 16:53:01;;;;;;;5.32;1.63;;;;;;;;;;5033724;28;20051;-70
2022/02/06 16:55:28;;;;;;;4.20;2.17;;;;;;;;;;5033741;28;20017;-74
2022/02/06 16:57:54;;;;;;;4.55;2.10;;;;;;;;;;5033665;28;20480;-75
2022/02/06 17:00:20;;;;;;;4.68;2.35;;;;;;;;;;5033533;28;20068;-76
2022/02/06 17:02:46;;;;;;;5.15;2.25;;;;;;;;;;5033741;28;20025;-75
2022/02/06 17:05:12;;;;;;;4.85;2.10;;;;;;;;;;5033538;28;20801;-76
2022/02/06 17:07:38;;;;;;;4.15;2.17;;;;;;;;;;5033291;28;20025;-76
2022/02/06 17:10:05;;;;;;;3.83;1.95;;;;;;;;;;5033415;28;20021;-76
2022/02/06 17:12:31;;;;;;;4.30;2.15;;;;;;;;;;5033163;28;20029;-72
2022/02/06 17:14:57;;;;;;;5.47;2.20;;;;;;;;;;5033156;28;20036;-74
2022/02/06 17:17:25;;;;;;;4.07;2.25;;;;;;;;;;5033043;28;20025;-75
2022/02/06 17:19:53;;;;;;;4.88;2.13;;;;;;;;;;5032924;28;20362;-74
2022/02/06 17:22:20;;;;;;;3.65;1.85;;;;;;;;;;5033119;28;20480;-75
2022/02/06 17:24:46;;;;;;;4.75;2.50;;;;;;;;;;5033133;28;20034;-75
2022/02/06 17:27:12;;;;;;;4.07;2.10;;;;;;;;;;5032964;28;20517;-75
2022/02/06 17:29:38;;;;;;;6.10;2.25;;;;;;;;;;5032736;28;20036;-75
2022/02/06 17:32:04;;;;;;;4.97;2.80;;;;;;;;;;5031413;28;20025;-75
2022/02/06 17:34:30;;;;;;;4.40;2.13;;;;;;;;;;5032953;28;20013;-75
2022/02/06 17:36:56;;;;;;;4.40;2.28;;;;;;;;;;5032761;28;20026;-75
2022/02/06 17:39:22;;;;;;;4.72;2.55;;;;;;;;;;5032789;28;20055;-73
2022/02/06 17:41:48;;;;;;;4.43;2.30;;;;;;;;;;5046493;28;20032;-76
2022/02/06 17:44:15;;;;;;;4.60;2.38;;;;;;;;;;5052478;28;20605;-74
2022/02/06 17:46:41;;;;;;;3.92;1.88;;;;;;;;;;5052518;28;20021;-74